Time;durP1;ratioP1;P1;durP2;ratioP2;P2;SDS_P1;SDS_P2;PMS_P1;PMS_P2;Temp;Humidity;BMP_temperature;BMP_pressure;BME280_temperature;BME280_humidity;BME280_pressure;Samples;Min_cycle;Max_cycle;Signal;HPM_P1;HPM_P2
2023/07/24 00:32:24;;;;;;;14.90;8.05;;;16.50;99.90;;;;;;4682124;30;20112;-87
2023/07/24 02:54:19;;;;;;;;;;;;;;;;;;;;;
2023/07/24 05:25:29;;;;;;;17.65;10.55;;;16.50;99.90;;;;;;6176049;23;20366;-84
2023/07/24 05:28:13;;;;;;;17.40;10.32;;;16.40;99.90;;;;;;6157110;23;20057;-84
2023/07/24 05:30:39;;;;;;;17.77;11.18;;;16.50;99.90;;;;;;6129205;23;20025;-84
2023/07/24 05:33:13;;;;;;;18.83;10.60;;;17.10;99.90;;;;;;6130409;23;20018;-85
2023/07/24 05:35:50;;;;;;;21.60;10.95;;;16.50;99.90;;;;;;6130130;23;20029;-86
2023/07/24 05:38:31;;;;;;;17.80;10.90;;;16.60;99.90;;;;;;6156390;23;20013;-85
2023/07/24 05:40:58;;;;;;;18.88;10.32;;;16.50;99.90;;;;;;6130317;23;20027;-89
2023/07/24 05:43:36;;;;;;;18.08;10.73;;;16.50;99.90;;;;;;6130518;23;20098;-85
2023/07/24 05:46:02;;;;;;;17.30;10.85;;;16.60;99.90;;;;;;6129830;23;20094;-87
2023/07/24 05:48:49;;;;;;;17.73;10.43;;;16.60;99.90;;;;;;6133346;23;20014;-87
2023/07/24 05:51:23;;;;;;;16.67;10.38;;;16.60;99.90;;;;;;6130495;23;20013;-85
2023/07/24 05:53:49;;;;;;;17.90;10.40;;;16.70;99.90;;;;;;6129594;23;20052;-85
2023/07/24 05:56:30;;;;;;;17.30;10.05;;;16.70;99.90;;;;;;6130250;23;20018;-86
2023/07/24 05:58:55;;;;;;;16.85;10.48;;;16.70;99.90;;;;;;6129146;23;20025;-85
2023/07/24 06:01:30;;;;;;;16.20;9.43;;;16.90;99.90;;;;;;6129243;23;20100;-89
2023/07/24 06:04:16;;;;;;;16.83;10.27;;;16.40;99.90;;;;;;6129953;23;20024;-81
2023/07/24 06:07:02;;;;;;;16.23;10.07;;;17.00;99.90;;;;;;6128732;23;20029;-84
2023/07/24 06:09:28;;;;;;;17.00;10.02;;;17.10;99.90;;;;;;5990503;23;20110;-85
2023/07/24 06:12:12;;;;;;;16.58;10.43;;;17.10;99.90;;;;;;6130165;23;20049;-84
2023/07/24 06:14:38;;;;;;;17.42;9.38;;;17.10;99.90;;;;;;6154378;23;20018;-84
2023/07/24 06:17:04;;;;;;;16.15;9.50;;;17.20;99.90;;;;;;6130221;23;20097;-84
2023/07/24 06:19:45;;;;;;;17.23;10.23;;;17.20;99.90;;;;;;6129594;23;20022;-84
2023/07/24 06:22:11;;;;;;;15.10;9.43;;;17.20;99.90;;;;;;6128781;23;20021;-84
2023/07/24 06:24:37;;;;;;;18.17;10.68;;;17.30;99.90;;;;;;6155218;23;20010;-85
2023/07/24 06:27:30;;;;;;;17.17;10.40;;;17.30;99.90;;;;;;6154968;23;20025;-86
2023/07/24 06:30:12;;;;;;;16.50;10.30;;;16.50;99.90;;;;;;6155626;23;20465;-87
2023/07/24 06:32:37;;;;;;;17.15;10.40;;;17.00;99.90;;;;;;6154936;23;20493;-84
2023/07/24 06:35:03;;;;;;;17.67;10.88;;;17.30;99.90;;;;;;6154216;23;20111;-86
2023/07/24 06:37:53;;;;;;;16.35;9.80;;;17.30;99.90;;;;;;6154665;23;20021;-87
2023/07/24 06:40:25;;;;;;;16.88;9.65;;;17.40;99.90;;;;;;6126926;23;20067;-87
2023/07/24 06:43:00;;;;;;;17.23;9.85;;;17.50;99.90;;;;;;6136780;23;20018;-86
2023/07/24 06:45:31;;;;;;;23.63;10.18;;;17.70;99.90;;;;;;6127786;23;20044;-86
2023/07/24 06:48:32;;;;;;;15.93;9.48;;;17.80;99.90;;;;;;6129248;23;20472;-87
2023/07/24 06:51:53;;;;;;;15.82;9.35;;;17.80;99.90;;;;;;6130003;23;20033;-87
2023/07/24 06:54:19;;;;;;;15.57;9.50;;;17.70;99.90;;;;;;6115745;23;20018;-87
2023/07/24 06:57:36;;;;;;;17.02;9.68;;;18.20;99.90;;;;;;6128606;23;20339;-87
2023/07/24 07:00:26;;;;;;;16.50;9.68;;;18.20;99.90;;;;;;6128679;23;20342;-87
2023/07/24 07:02:54;;;;;;;14.77;9.48;;;18.30;99.90;;;;;;6154802;23;20029;-87
2023/07/24 07:13:49;;;;;;;15.13;9.30;;;18.30;99.90;;;;;;6008210;23;20755;-87
2023/07/24 07:20:12;;;;;;;15.30;9.45;;;18.20;99.90;;;;;;5843908;24;20062;-87
2023/07/24 07:23:02;;;;;;;15.02;9.93;;;18.30;99.90;;;;;;5928936;23;20028;-86
2023/07/24 07:26:29;;;;;;;15.13;9.80;;;18.40;99.90;;;;;;6154111;23;20021;-87
2023/07/24 07:29:16;;;;;;;16.67;10.55;;;18.40;99.90;;;;;;6120764;23;20017;-86
2023/07/24 07:32:15;;;;;;;;;;;;;;;;;;;;;
2023/07/24 07:38:13;;;;;;;15.88;9.30;;;18.30;99.90;;;;;;6091314;23;20029;-86
2023/07/24 07:40:39;;;;;;;14.48;9.50;;;18.30;99.90;;;;;;6159263;23;20057;-85
2023/07/24 07:43:05;;;;;;;16.25;8.98;;;18.50;99.90;;;;;;6154257;23;20435;-83
2023/07/24 07:45:40;;;;;;;15.45;9.35;;;18.60;99.90;;;;;;6152708;23;20450;-86
2023/07/24 07:48:06;;;;;;;15.02;9.20;;;18.70;99.90;;;;;;6156042;23;20017;-86
2023/07/24 07:50:59;;;;;;;15.57;9.45;;;18.70;99.90;;;;;;6154359;23;20060;-86
2023/07/24 07:53:35;;;;;;;15.98;9.50;;;18.60;99.90;;;;;;6154957;23;20022;-86
2023/07/24 07:56:50;;;;;;;14.85;9.13;;;18.70;99.90;;;;;;6154821;23;20103;-86
2023/07/24 07:59:46;;;;;;;15.43;9.82;;;18.80;99.90;;;;;;6153043;23;20512;-86
2023/07/24 08:02:39;;;;;;;15.65;9.43;;;19.40;99.90;;;;;;6156014;23;20028;-86
2023/07/24 08:09:21;;;;;;;15.05;9.25;;;19.30;99.90;;;;;;6072373;23;20074;-87
2023/07/24 08:15:27;;;;;;;15.80;9.70;;;19.30;99.90;;;;;;6091977;23;20045;-85
2023/07/24 08:18:29;;;;;;;15.40;9.05;;;19.00;99.90;;;;;;6006297;23;20039;-86
2023/07/24 08:21:01;;;;;;;15.60;9.43;;;19.30;99.90;;;;;;5983199;23;20020;-88
2023/07/24 08:24:01;;;;;;;14.25;7.95;;;19.40;99.90;;;;;;5993973;23;20345;-87
2023/07/24 08:27:05;;;;;;;16.55;8.30;;;19.50;99.90;;;;;;6007495;23;20475;-87
2023/07/24 08:30:13;;;;;;;;;;;;;;;;;;;;;
2023/07/24 08:33:13;;;;;;;15.20;7.63;;;19.70;99.90;;;;;;5956088;23;20089;-85
2023/07/24 08:35:44;;;;;;;13.95;8.30;;;19.70;99.90;;;;;;6068627;23;20077;-85
2023/07/24 08:38:35;;;;;;;;;;;;;;;;;;;;;
2023/07/24 08:41:55;;;;;;;16.42;8.63;;;20.00;99.90;;;;;;6069196;23;20025;-85
2023/07/24 08:49:03;;;;;;;14.35;7.70;;;20.60;99.90;;;;;;6183421;23;20075;-85
2023/07/24 08:52:10;;;;;;;13.82;7.00;;;20.60;99.90;;;;;;6035893;23;20031;-85
2023/07/24 08:55:24;;;;;;;12.52;6.95;;;20.70;99.90;;;;;;6011682;23;20019;-86
2023/07/24 08:58:43;;;;;;;15.95;7.70;;;20.70;99.90;;;;;;6038344;23;20050;-86
2023/07/24 09:01:52;;;;;;;12.77;7.43;;;20.50;99.90;;;;;;6130547;23;20072;-85
2023/07/24 09:05:34;;;;;;;14.65;7.88;;;20.50;99.90;;;;;;6014273;23;20026;-87
2023/07/24 09:18:27;;;;;;;12.82;7.03;;;21.30;99.90;;;;;;6163335;23;20473;-87
2023/07/24 09:21:15;;;;;;;13.18;7.72;;;21.70;99.90;;;;;;6143041;23;20019;-86
2023/07/24 09:27:46;;;;;;;12.65;6.85;;;21.30;99.90;;;;;;6019621;23;20035;-86
2023/07/24 09:33:13;;;;;;;12.95;6.85;;;21.60;99.90;;;;;;6185795;23;20079;-86
2023/07/24 09:39:08;;;;;;;12.65;6.85;;;21.60;99.90;;;;;;6155630;23;20517;-86
2023/07/24 09:42:54;;;;;;;12.82;7.18;;;21.80;99.90;;;;;;6095102;23;20052;-86
2023/07/24 09:45:38;;;;;;;13.15;7.13;;;21.80;99.90;;;;;;6128796;23;20346;-87
2023/07/24 09:51:59;;;;;;;12.52;6.68;;;21.30;99.90;;;;;;5980631;23;20032;-88
2023/07/24 09:58:06;;;;;;;13.98;6.72;;;21.60;99.90;;;;;;5984051;23;20027;-87
2023/07/24 10:00:37;;;;;;;11.45;6.95;;;21.80;99.90;;;;;;6007972;23;20102;-87
2023/07/24 10:04:13;;;;;;;13.50;6.60;;;22.20;99.90;;;;;;6010433;23;20003;-86
2023/07/24 10:07:22;;;;;;;13.07;6.95;;;22.30;99.90;;;;;;5825046;24;20340;-86
2023/07/24 10:09:52;;;;;;;12.38;6.70;;;21.70;99.90;;;;;;5893434;23;20047;-87
2023/07/24 10:13:17;;;;;;;11.93;6.38;;;22.10;99.90;;;;;;6007192;23;20027;-88
2023/07/24 10:16:06;;;;;;;13.50;6.90;;;22.40;99.90;;;;;;5908007;23;20025;-86
2023/07/24 10:19:34;;;;;;;10.90;6.07;;;22.80;99.90;;;;;;6179733;23;20021;-87
2023/07/24 10:23:12;;;;;;;10.43;5.80;;;23.00;99.90;;;;;;6159226;23;20028;-86
2023/07/24 10:26:04;;;;;;;11.80;6.65;;;22.80;99.90;;;;;;6158742;23;20059;-87
2023/07/24 10:29:12;;;;;;;13.68;5.60;;;22.90;99.90;;;;;;6121369;23;20018;-87
2023/07/24 10:46:20;;;;;;;11.65;6.20;;;23.20;99.90;;;;;;6157084;23;20520;-88
2023/07/24 10:48:50;;;;;;;12.43;6.57;;;22.90;99.90;;;;;;6156621;23;20450;-87
2023/07/24 10:51:23;;;;;;;11.43;6.13;;;22.90;99.90;;;;;;6159425;23;20020;-86
2023/07/24 10:54:00;;;;;;;11.38;6.80;;;23.10;99.90;;;;;;6158742;23;20028;-88
2023/07/24 10:56:26;;;;;;;12.07;6.47;;;23.00;99.90;;;;;;6185827;23;20446;-86
2023/07/24 10:59:02;;;;;;;11.77;6.03;;;23.30;99.90;;;;;;6185354;23;20055;-86
2023/07/24 11:01:37;;;;;;;10.35;5.80;;;23.30;99.90;;;;;;6158793;23;20017;-86
2023/07/24 11:04:18;;;;;;;10.98;6.53;;;23.20;99.90;;;;;;6157109;23;20013;-85
2023/07/24 11:06:53;;;;;;;12.05;5.90;;;23.40;99.90;;;;;;6157574;23;20028;-86
2023/07/24 11:09:19;;;;;;;12.35;5.90;;;23.50;99.90;;;;;;6158603;23;20040;-89
2023/07/24 11:11:45;;;;;;;10.73;5.35;;;23.70;99.90;;;;;;6151337;23;20021;-86
2023/07/24 11:14:14;;;;;;;12.93;5.88;;;23.70;99.90;;;;;;6183764;23;20024;-85
2023/07/24 11:17:02;;;;;;;11.05;5.38;;;24.10;99.90;;;;;;6182324;23;20023;-84
2023/07/24 11:19:27;;;;;;;10.43;5.43;;;24.30;99.90;;;;;;6185690;23;20017;-84
2023/07/24 11:22:11;;;;;;;11.65;5.28;;;23.90;99.90;;;;;;6184751;23;20063;-84
2023/07/24 11:24:49;;;;;;;11.75;5.78;;;24.00;99.90;;;;;;6157902;23;20516;-84
2023/07/24 11:27:19;;;;;;;10.60;5.18;;;23.90;99.90;;;;;;6184499;23;20096;-84
2023/07/24 11:30:06;;;;;;;10.45;5.05;;;24.40;99.90;;;;;;6184410;23;20017;-85
2023/07/24 11:32:45;;;;;;;9.95;5.20;;;24.10;99.90;;;;;;6185158;23;20346;-85
2023/07/24 11:35:15;;;;;;;12.18;5.45;;;24.10;99.90;;;;;;6183521;23;20044;-83
2023/07/24 11:37:50;;;;;;;13.23;6.15;;;23.70;99.90;;;;;;6182521;23;20009;-86
2023/07/24 11:44:38;;;;;;;11.18;5.10;;;23.20;99.90;;;;;;6130911;23;20042;-85
2023/07/24 11:47:05;;;;;;;10.43;5.10;;;23.00;99.90;;;;;;6183961;23;20025;-86
2023/07/24 11:49:47;;;;;;;12.93;5.65;;;22.90;99.90;;;;;;6182748;23;20349;-85
2023/07/24 11:52:13;;;;;;;10.70;5.40;;;22.70;99.90;;;;;;6183270;23;20016;-84
2023/07/24 11:54:38;;;;;;;10.95;5.45;;;23.00;99.90;;;;;;6184849;23;20071;-85
2023/07/24 11:57:29;;;;;;;9.57;4.90;;;23.00;99.90;;;;;;6183609;23;20048;-86
2023/07/24 12:00:01;;;;;;;12.50;5.38;;;23.10;99.90;;;;;;6183799;23;20049;-84
2023/07/24 12:02:39;;;;;;;12.20;5.03;;;23.00;99.90;;;;;;6182365;23;20021;-84
2023/07/24 12:05:23;;;;;;;12.48;5.10;;;22.90;99.90;;;;;;6182945;23;20021;-87
2023/07/24 12:07:49;;;;;;;10.40;5.20;;;22.70;99.90;;;;;;6183647;23;20032;-85
2023/07/24 12:10:28;;;;;;;12.73;5.05;;;22.80;99.90;;;;;;6185673;23;20021;-87
2023/07/24 12:13:39;;;;;;;10.95;5.22;;;22.80;99.90;;;;;;6179858;23;20024;-91
2023/07/24 12:16:05;;;;;;;10.07;5.00;;;22.70;99.90;;;;;;6171330;23;20021;-86
2023/07/24 12:18:56;;;;;;;10.20;4.55;;;22.70;99.90;;;;;;6128684;23;20022;-86
2023/07/24 12:21:37;;;;;;;11.63;5.00;;;22.60;99.90;;;;;;6099787;23;20439;-87
2023/07/24 12:24:04;;;;;;;10.05;4.65;;;22.60;99.90;;;;;;6100462;23;20018;-86
2023/07/24 12:26:29;;;;;;;11.00;4.80;;;22.70;99.90;;;;;;6099306;23;20117;-87
2023/07/24 12:31:30;;;;;;;10.57;5.22;;;23.00;99.90;;;;;;6129571;23;20612;-87
2023/07/24 12:34:11;;;;;;;10.15;4.68;;;23.00;99.90;;;;;;6123733;23;20022;-87
2023/07/24 12:36:55;;;;;;;11.05;4.60;;;23.00;99.90;;;;;;6125823;23;20025;-86
2023/07/24 12:39:26;;;;;;;11.75;5.15;;;23.20;99.90;;;;;;6124605;23;20028;-86
2023/07/24 12:42:15;;;;;;;10.05;4.63;;;23.70;99.90;;;;;;6122856;23;20046;-87
2023/07/24 12:44:42;;;;;;;11.93;5.55;;;23.60;99.90;;;;;;6125115;23;20054;-87
2023/07/24 12:47:22;;;;;;;10.23;5.53;;;23.30;99.90;;;;;;6136491;23;20017;-86
2023/07/24 12:50:13;;;;;;;12.77;5.45;;;23.70;99.90;;;;;;6128736;23;20024;-85
2023/07/24 12:52:57;;;;;;;11.00;5.20;;;23.60;99.90;;;;;;6128375;23;20014;-86
2023/07/24 12:59:13;;;;;;;10.95;5.25;;;23.90;99.90;;;;;;6155123;23;20044;-84
2023/07/24 13:01:38;;;;;;;12.35;6.05;;;24.40;99.90;;;;;;6128163;23;20014;-86
2023/07/24 13:04:23;;;;;;;12.60;5.55;;;24.40;99.90;;;;;;6129302;23;20113;-86
2023/07/24 13:07:04;;;;;;;11.10;5.53;;;24.60;99.90;;;;;;6155253;23;20088;-85
2023/07/24 13:09:36;;;;;;;12.63;5.25;;;24.50;99.90;;;;;;6143074;23;20017;-85
2023/07/24 13:12:02;;;;;;;12.50;5.90;;;24.40;99.90;;;;;;6133421;23;20021;-85
2023/07/24 13:14:48;;;;;;;14.48;5.78;;;24.20;99.90;;;;;;6154950;23;20092;-85
2023/07/24 13:17:23;;;;;;;11.90;5.97;;;23.70;99.90;;;;;;6154620;23;20068;-85
2023/07/24 13:19:55;;;;;;;11.98;6.85;;;23.70;99.90;;;;;;6130470;23;20018;-86
2023/07/24 13:22:22;;;;;;;11.35;6.15;;;23.60;99.90;;;;;;6154588;23;20040;-85
2023/07/24 13:25:06;;;;;;;11.52;6.35;;;23.50;99.90;;;;;;6154624;23;20065;-85
2023/07/24 13:27:32;;;;;;;13.93;6.32;;;23.70;99.90;;;;;;6154737;23;20053;-87
2023/07/24 13:29:59;;;;;;;14.05;6.50;;;24.10;99.90;;;;;;6128144;23;20021;-86
2023/07/24 13:32:33;;;;;;;12.98;6.72;;;24.40;99.90;;;;;;6155181;23;20018;-87
2023/07/24 13:35:15;;;;;;;12.35;6.32;;;24.60;99.90;;;;;;6155195;23;20434;-87
2023/07/24 13:37:41;;;;;;;11.95;6.07;;;24.80;99.90;;;;;;6154046;23;20014;-83
2023/07/24 13:40:07;;;;;;;13.55;6.22;;;24.60;99.90;;;;;;6128898;23;20025;-83
2023/07/24 13:42:48;;;;;;;11.20;5.95;;;24.30;99.90;;;;;;6155530;23;20024;-83
2023/07/24 13:45:14;;;;;;;11.73;5.13;;;24.30;99.90;;;;;;6129486;23;20434;-84
2023/07/24 13:47:48;;;;;;;11.70;5.65;;;24.20;99.90;;;;;;6153870;23;20041;-83
2023/07/24 13:50:14;;;;;;;11.25;5.85;;;24.10;99.90;;;;;;6125891;23;20465;-83
2023/07/24 13:52:58;;;;;;;11.23;5.25;;;23.80;99.90;;;;;;6126763;23;20017;-84
2023/07/24 13:55:26;;;;;;;12.25;5.30;;;23.70;99.90;;;;;;6128767;23;20021;-84
2023/07/24 13:57:58;;;;;;;12.23;5.40;;;23.50;99.90;;;;;;6153541;23;20845;-84
2023/07/24 14:00:26;;;;;;;11.13;5.95;;;23.00;99.90;;;;;;6150244;23;20029;-83
2023/07/24 14:03:31;;;;;;;10.15;5.38;;;22.80;99.90;;;;;;6127851;23;20454;-84
2023/07/24 14:05:57;;;;;;;10.45;4.70;;;22.10;99.90;;;;;;6153653;23;20509;-83
2023/07/24 14:08:37;;;;;;;10.27;5.13;;;21.60;99.90;;;;;;6128815;23;20010;-84
2023/07/24 14:11:06;;;;;;;11.38;5.70;;;21.00;99.90;;;;;;6128666;23;20029;-85
2023/07/24 14:13:52;;;;;;;11.02;6.32;;;20.60;99.90;;;;;;6154747;23;20058;-84
2023/07/24 14:16:18;;;;;;;14.95;7.50;;;20.20;99.90;;;;;;6128287;23;20021;-83
2023/07/24 14:19:06;;;;;;;16.35;8.40;;;19.70;99.90;;;;;;6127093;23;20021;-82
2023/07/24 14:21:35;;;;;;;15.70;8.88;;;18.80;99.90;;;;;;6087849;23;20093;-84
2023/07/24 14:28:07;;;;;;;15.68;8.27;;;18.30;99.90;;;;;;6076179;23;20028;-83
2023/07/24 14:30:33;;;;;;;16.42;9.35;;;18.10;99.90;;;;;;6127586;23;20021;-83
2023/07/24 14:32:58;;;;;;;15.38;9.00;;;18.00;99.90;;;;;;6127808;23;20024;-83
2023/07/24 14:35:30;;;;;;;15.63;9.05;;;18.00;99.90;;;;;;6127757;23;20018;-83
2023/07/24 14:37:56;;;;;;;16.73;10.02;;;18.00;99.90;;;;;;6128745;23;20014;-82
2023/07/24 14:40:47;;;;;;;16.63;10.25;;;17.90;99.90;;;;;;6128117;23;20018;-84
2023/07/24 14:43:14;;;;;;;17.98;10.68;;;18.00;99.90;;;;;;6128326;23;20716;-83
2023/07/24 14:45:39;;;;;;;18.25;9.90;;;17.90;99.90;;;;;;6154078;23;20018;-83
2023/07/24 14:48:08;;;;;;;16.52;9.65;;;17.90;99.90;;;;;;6126421;23;20013;-82
2023/07/24 14:50:34;;;;;;;16.00;10.00;;;17.90;99.90;;;;;;6126380;23;20110;-82
2023/07/24 14:53:05;;;;;;;15.02;9.43;;;17.90;99.90;;;;;;6155576;23;20013;-82
2023/07/24 14:55:31;;;;;;;16.73;10.23;;;18.50;99.90;;;;;;6155250;23;20013;-81
2023/07/24 14:58:27;;;;;;;14.38;9.57;;;17.90;99.90;;;;;;6129905;23;20508;-82
2023/07/24 15:00:59;;;;;;;17.67;10.63;;;18.00;99.90;;;;;;6127764;23;20108;-82
2023/07/24 15:03:28;;;;;;;19.33;10.05;;;18.00;99.90;;;;;;6130097;23;20009;-82
2023/07/24 15:05:56;;;;;;;16.73;9.85;;;18.00;99.90;;;;;;6129678;23;20021;-83
2023/07/24 15:08:29;;;;;;;18.35;9.98;;;18.10;99.90;;;;;;6129129;23;20049;-82
2023/07/24 15:11:06;;;;;;;16.08;9.55;;;18.20;99.90;;;;;;6130280;23;20022;-82
2023/07/24 15:14:27;;;;;;;14.98;9.13;;;18.20;99.90;;;;;;6126372;23;20010;-82
2023/07/24 15:17:09;;;;;;;15.15;8.77;;;18.80;99.90;;;;;;6127745;23;20156;-83
2023/07/24 15:19:49;;;;;;;15.90;8.75;;;19.00;99.90;;;;;;6155674;23;20016;-83
2023/07/24 15:23:13;;;;;;;16.05;8.77;;;18.90;99.90;;;;;;6154963;23;20024;-83
2023/07/24 15:25:59;;;;;;;14.38;7.93;;;18.90;99.90;;;;;;6155811;23;20021;-83
2023/07/24 15:28:27;;;;;;;13.38;7.05;;;18.90;99.90;;;;;;6129556;23;20018;-82
2023/07/24 15:30:59;;;;;;;12.38;7.07;;;19.00;99.90;;;;;;6155520;23;20093;-83
2023/07/24 15:33:28;;;;;;;12.23;6.70;;;19.10;99.90;;;;;;6155798;23;20018;-82
2023/07/24 15:35:54;;;;;;;11.95;6.32;;;19.30;99.90;;;;;;6128584;23;20101;-85
2023/07/24 15:38:35;;;;;;;11.63;5.65;;;19.40;99.90;;;;;;6128763;23;20049;-82
2023/07/24 15:41:19;;;;;;;10.32;4.45;;;19.60;99.90;;;;;;6128120;23;20028;-84
2023/07/24 15:44:15;;;;;;;10.50;4.07;;;19.70;99.90;;;;;;6128239;23;20029;-82
2023/07/24 15:47:07;;;;;;;10.07;3.58;;;19.60;99.90;;;;;;6127697;23;20024;-81
2023/07/24 15:49:50;;;;;;;8.88;3.30;;;19.00;99.90;;;;;;6126058;23;20376;-82
2023/07/24 15:52:15;;;;;;;9.45;3.33;;;18.90;99.90;;;;;;6128949;23;20083;-81
2023/07/24 15:57:50;;;;;;;10.98;3.40;;;18.90;99.90;;;;;;6074578;23;20032;-81
2023/07/24 16:00:16;;;;;;;9.63;3.45;;;19.10;99.90;;;;;;6153207;23;20340;-81
2023/07/24 16:02:42;;;;;;;9.40;3.00;;;19.10;99.90;;;;;;6126522;23;20410;-81
2023/07/24 16:05:18;;;;;;;9.48;3.40;;;19.10;99.90;;;;;;6147955;23;20021;-81
2023/07/24 16:08:06;;;;;;;9.88;3.10;;;19.00;99.90;;;;;;6126070;23;20105;-81
2023/07/24 16:10:32;;;;;;;10.73;3.47;;;18.80;99.90;;;;;;6126787;23;20009;-81
2023/07/24 16:13:10;;;;;;;10.50;3.40;;;18.80;99.90;;;;;;6126294;23;20104;-80
2023/07/24 16:15:38;;;;;;;10.07;3.10;;;18.70;99.90;;;;;;6128453;23;20063;-82
2023/07/24 16:18:10;;;;;;;10.48;3.03;;;18.70;99.90;;;;;;6130197;23;20052;-80
2023/07/24 16:20:36;;;;;;;12.77;3.55;;;18.80;99.90;;;;;;6154520;23;20449;-83
2023/07/24 16:23:27;;;;;;;10.23;3.10;;;18.60;99.90;;;;;;6129057;23;20017;-82
2023/07/24 16:25:53;;;;;;;7.70;2.63;;;18.80;99.90;;;;;;6154319;23;20518;-82
2023/07/24 16:28:37;;;;;;;8.65;2.83;;;18.80;99.90;;;;;;6128502;23;20017;-84
2023/07/24 16:31:29;;;;;;;10.10;2.75;;;19.10;99.90;;;;;;6155202;23;20013;-83
2023/07/24 16:33:54;;;;;;;9.18;2.47;;;19.20;99.90;;;;;;6127934;23;20024;-82
2023/07/24 16:36:38;;;;;;;9.40;2.78;;;19.40;99.90;;;;;;6154957;23;20045;-84
2023/07/24 16:39:07;;;;;;;;;;;19.60;99.90;;;;;;6128899;23;20022;-83
2023/07/24 16:41:51;;;;;;;8.20;2.40;;;19.70;99.90;;;;;;6128626;23;19916;-82
2023/07/24 16:44:16;;;;;;;8.27;2.60;;;19.90;99.90;;;;;;6127022;23;20024;-82
2023/07/24 16:47:07;;;;;;;8.18;2.05;;;20.40;99.90;;;;;;6127235;23;20018;-83
2023/07/24 16:49:33;;;;;;;9.57;2.47;;;20.10;99.90;;;;;;6098262;23;20036;-82
2023/07/24 16:52:00;;;;;;;7.75;2.55;;;19.70;99.90;;;;;;6099669;23;20045;-82
2023/07/24 16:54:25;;;;;;;11.52;2.53;;;19.60;99.90;;;;;;6124899;23;20334;-82
2023/07/24 16:56:51;;;;;;;8.38;2.35;;;19.70;99.90;;;;;;6125375;23;20018;-82
2023/07/24 16:59:17;;;;;;;9.27;2.50;;;19.60;99.90;;;;;;6099627;23;20455;-83
2023/07/24 17:01:42;;;;;;;9.63;2.55;;;19.60;99.90;;;;;;6097304;23;20011;-82
2023/07/24 17:04:08;;;;;;;9.75;2.58;;;19.30;99.90;;;;;;6100237;23;20018;-82
2023/07/24 17:06:35;;;;;;;9.35;2.40;;;19.00;99.90;;;;;;6098252;23;20013;-81
2023/07/24 17:09:08;;;;;;;9.57;2.60;;;18.60;99.90;;;;;;6114664;23;20018;-82
2023/07/24 17:11:34;;;;;;;9.80;2.50;;;18.20;99.90;;;;;;6128802;23;20020;-82
2023/07/24 17:14:06;;;;;;;9.80;2.58;;;18.00;99.90;;;;;;6127945;23;20013;-82
2023/07/24 17:16:32;;;;;;;6.97;2.28;;;17.80;99.90;;;;;;6129206;23;20024;-81
2023/07/24 17:18:58;;;;;;;9.63;2.30;;;17.60;99.90;;;;;;6127400;23;20017;-82
2023/07/24 17:21:26;;;;;;;8.77;2.30;;;17.50;99.90;;;;;;6129545;23;20382;-82
2023/07/24 17:24:07;;;;;;;8.15;2.20;;;17.30;99.90;;;;;;6130152;23;20442;-82
2023/07/24 17:26:34;;;;;;;10.52;2.80;;;17.10;99.90;;;;;;6129601;23;20017;-82
2023/07/24 17:29:08;;;;;;;9.73;2.33;;;17.30;99.90;;;;;;6155176;23;20073;-82
2023/07/24 17:36:07;;;;;;;8.57;2.30;;;16.70;99.90;;;;;;6154529;23;20143;-83
2023/07/24 17:39:00;;;;;;;7.97;2.53;;;17.00;99.90;;;;;;6130178;23;20088;-83
2023/07/24 17:41:50;;;;;;;9.25;2.17;;;17.90;99.90;;;;;;6118596;23;20022;-82
2023/07/24 17:44:28;;;;;;;8.65;2.50;;;18.10;99.90;;;;;;6129108;23;20411;-82
2023/07/24 17:46:54;;;;;;;9.45;2.30;;;17.80;99.90;;;;;;6129802;23;20021;-82
2023/07/24 17:49:31;;;;;;;7.40;2.10;;;17.50;99.90;;;;;;6128833;23;20017;-82
2023/07/24 17:52:05;;;;;;;8.32;2.20;;;17.30;99.90;;;;;;6156963;23;20029;-82
2023/07/24 17:54:46;;;;;;;10.60;2.42;;;17.30;99.90;;;;;;6156166;23;20346;-82
2023/07/24 17:57:12;;;;;;;10.02;2.50;;;17.00;99.90;;;;;;6154168;23;20442;-82
2023/07/24 17:59:38;;;;;;;7.85;2.20;;;17.40;99.90;;;;;;6128358;23;20097;-82
2023/07/24 18:02:04;;;;;;;7.53;2.00;;;16.90;99.90;;;;;;6155514;23;20330;-82
2023/07/24 18:04:30;;;;;;;6.70;2.10;;;16.90;99.90;;;;;;6154714;23;20017;-82
2023/07/24 18:06:56;;;;;;;8.82;1.92;;;16.80;99.90;;;;;;6129035;23;20021;-82
2023/07/24 18:09:22;;;;;;;8.00;2.42;;;16.80;99.90;;;;;;6150625;23;20484;-82
2023/07/24 18:11:47;;;;;;;10.27;2.35;;;16.70;99.90;;;;;;6184163;23;20017;-82
2023/07/24 18:14:13;;;;;;;7.45;2.20;;;16.60;99.90;;;;;;6185171;23;20009;-82
2023/07/24 18:16:43;;;;;;;7.60;1.90;;;16.60;99.90;;;;;;6158535;23;20101;-82
2023/07/24 18:19:09;;;;;;;6.45;2.20;;;16.70;99.90;;;;;;6184726;23;20006;-82
2023/07/24 18:21:35;;;;;;;7.85;2.35;;;16.60;99.90;;;;;;6185409;23;20480;-82
2023/07/24 18:24:04;;;;;;;8.93;2.30;;;16.60;99.90;;;;;;6185179;23;20457;-82
2023/07/24 18:26:34;;;;;;;7.43;2.40;;;16.50;99.90;;;;;;6157315;23;20319;-83
2023/07/24 18:29:00;;;;;;;6.88;2.10;;;16.50;99.90;;;;;;6185213;23;20099;-83
2023/07/24 18:31:27;;;;;;;7.60;2.17;;;16.60;99.90;;;;;;6184087;23;20017;-82
2023/07/24 18:33:53;;;;;;;8.48;2.10;;;16.90;99.90;;;;;;6158509;23;20049;-82
2023/07/24 18:36:19;;;;;;;10.48;2.50;;;17.50;99.90;;;;;;6159045;23;20009;-83
2023/07/24 18:38:45;;;;;;;8.52;2.25;;;17.60;99.90;;;;;;6157330;23;20474;-83
2023/07/24 18:41:10;;;;;;;8.20;2.10;;;17.50;99.90;;;;;;6159205;23;20044;-83
2023/07/24 18:43:36;;;;;;;7.00;2.30;;;17.20;99.90;;;;;;6159239;23;20071;-83
2023/07/24 18:46:02;;;;;;;9.05;2.20;;;16.90;99.90;;;;;;6184481;23;20017;-82
2023/07/24 18:48:27;;;;;;;8.20;2.47;;;16.60;99.90;;;;;;6158656;23;20013;-83
2023/07/24 18:50:53;;;;;;;8.00;2.20;;;16.50;99.90;;;;;;6133410;23;20021;-82
2023/07/24 18:53:19;;;;;;;6.18;1.90;;;16.40;99.90;;;;;;6184969;23;20009;-83
2023/07/24 18:55:44;;;;;;;8.80;2.35;;;16.30;99.90;;;;;;6185309;23;20374;-83
2023/07/24 18:58:10;;;;;;;8.57;2.55;;;16.20;99.90;;;;;;6159297;23;20020;-83
2023/07/24 19:00:36;;;;;;;8.60;2.17;;;16.30;99.90;;;;;;6158299;23;20450;-83
2023/07/24 19:03:02;;;;;;;6.90;2.20;;;16.10;99.90;;;;;;6159254;23;20337;-83
2023/07/24 19:05:28;;;;;;;6.72;2.22;;;16.00;99.90;;;;;;6185670;23;20039;-82
2023/07/24 19:07:54;;;;;;;8.50;2.20;;;16.10;99.90;;;;;;6184251;23;20445;-83
2023/07/24 19:10:19;;;;;;;9.38;2.33;;;16.10;99.90;;;;;;6159116;23;20040;-83
2023/07/24 19:12:45;;;;;;;8.00;2.30;;;16.00;99.90;;;;;;6184746;23;20074;-83
2023/07/24 19:15:11;;;;;;;7.10;2.20;;;15.90;99.90;;;;;;6184233;23;20025;-85
2023/07/24 19:17:40;;;;;;;8.57;2.20;;;15.80;99.90;;;;;;6158487;23;20024;-84
2023/07/24 19:20:10;;;;;;;7.43;2.30;;;15.80;99.90;;;;;;6156532;23;20465;-84
2023/07/24 19:22:36;;;;;;;7.07;2.20;;;15.80;99.90;;;;;;6158100;23;20345;-82
2023/07/24 19:25:03;;;;;;;7.38;2.20;;;15.70;99.90;;;;;;6186161;23;20016;-84
2023/07/24 19:27:29;;;;;;;10.13;2.67;;;15.70;99.90;;;;;;6158504;23;20095;-85
2023/07/24 19:29:57;;;;;;;8.30;2.17;;;15.60;99.90;;;;;;6157553;23;20075;-82
2023/07/24 19:32:24;;;;;;;9.00;2.50;;;15.70;99.90;;;;;;6158807;23;20025;-82
2023/07/24 19:34:50;;;;;;;10.18;2.63;;;15.70;99.90;;;;;;6184277;23;20049;-82
2023/07/24 19:37:16;;;;;;;11.70;2.53;;;15.60;99.90;;;;;;6185592;23;20024;-82
2023/07/24 19:39:42;;;;;;;7.22;2.30;;;15.80;99.90;;;;;;6184974;23;20013;-83
2023/07/24 19:42:11;;;;;;;9.63;2.30;;;15.80;99.90;;;;;;6184628;23;20017;-82
2023/07/24 19:44:36;;;;;;;9.02;2.45;;;15.70;99.90;;;;;;6158151;23;20009;-82
2023/07/24 19:47:03;;;;;;;10.00;2.47;;;15.60;99.90;;;;;;6185212;23;20393;-81
2023/07/24 19:49:29;;;;;;;12.15;2.40;;;15.60;99.90;;;;;;6157230;23;20071;-81
2023/07/24 19:51:56;;;;;;;9.18;2.58;;;15.60;99.90;;;;;;6185059;23;20133;-81
2023/07/24 19:54:25;;;;;;;10.45;2.42;;;15.60;99.90;;;;;;6158189;23;20028;-82
2023/07/24 19:56:50;;;;;;;9.13;2.47;;;15.60;99.90;;;;;;6183356;23;20025;-82
2023/07/24 19:59:16;;;;;;;8.48;2.40;;;15.60;99.90;;;;;;6158504;23;20091;-81
2023/07/24 20:01:42;;;;;;;8.35;2.28;;;15.50;99.90;;;;;;6184837;23;20037;-83
2023/07/24 20:04:07;;;;;;;8.40;2.35;;;15.50;99.90;;;;;;6156965;23;20020;-82
2023/07/24 20:06:33;;;;;;;10.63;2.50;;;16.00;99.90;;;;;;6184722;23;20088;-81
2023/07/24 20:08:59;;;;;;;9.50;2.50;;;15.40;99.90;;;;;;6158440;23;20079;-81
2023/07/24 20:11:25;;;;;;;8.32;2.28;;;15.40;99.90;;;;;;6184283;23;20088;-82
2023/07/24 20:13:51;;;;;;;9.60;2.55;;;15.40;99.90;;;;;;6184672;23;20465;-83
2023/07/24 20:16:19;;;;;;;10.30;2.85;;;15.30;99.90;;;;;;6158547;23;20016;-85
2023/07/24 20:18:47;;;;;;;8.82;2.28;;;15.50;99.90;;;;;;6153428;23;20024;-83
2023/07/24 20:21:13;;;;;;;8.43;2.63;;;15.40;99.90;;;;;;6095494;23;20457;-82
2023/07/24 20:23:39;;;;;;;8.57;2.50;;;15.30;99.90;;;;;;6092888;23;20029;-83